sensor_id;sensor_type;location;lat;lon;timestamp;temperature;humidity
13744;DHT22;6943;52.368;9.966;2022-10-17T00:00:23;13.20;99.90
13744;DHT22;6943;52.368;9.966;2022-10-17T00:02:49;13.20;99.90
13744;DHT22;6943;52.368;9.966;2022-10-17T00:05:14;13.20;99.90
13744;DHT22;6943;52.368;9.966;2022-10-17T00:07:40;13.20;99.90
13744;DHT22;6943;52.368;9.966;2022-10-17T00:10:07;13.10;99.90
13744;DHT22;6943;52.368;9.966;2022-10-17T00:12:33;13.00;99.90
13744;DHT22;6943;52.368;9.966;2022-10-17T00:14:58;12.90;99.90
13744;DHT22;6943;52.368;9.966;2022-10-17T00:17:24;13.00;99.90
13744;DHT22;6943;52.368;9.966;2022-10-17T00:19:49;12.90;99.90
13744;DHT22;6943;52.368;9.966;2022-10-17T00:22:15;12.90;99.90
13744;DHT22;6943;52.368;9.966;2022-10-17T00:24:40;13.00;99.90
13744;DHT22;6943;52.368;9.966;2022-10-17T00:27:06;13.00;99.90
13744;DHT22;6943;52.368;9.966;2022-10-17T00:29:32;13.00;99.90
13744;DHT22;6943;52.368;9.966;2022-10-17T00:31:57;13.10;99.90
13744;DHT22;6943;52.368;9.966;2022-10-17T00:34:24;13.10;99.90
13744;DHT22;6943;52.368;9.966;2022-10-17T00:36:49;13.00;99.90
13744;DHT22;6943;52.368;9.966;2022-10-17T00:39:15;13.00;99.90
13744;DHT22;6943;52.368;9.966;2022-10-17T00:41:40;12.90;99.90
13744;DHT22;6943;52.368;9.966;2022-10-17T00:46:58;12.80;99.90
13744;DHT22;6943;52.368;9.966;2022-10-17T00:49:29;12.80;99.90
13744;DHT22;6943;52.368;9.966;2022-10-17T00:51:58;12.80;99.90
13744;DHT22;6943;52.368;9.966;2022-10-17T00:54:36;12.80;99.90
13744;DHT22;6943;52.368;9.966;2022-10-17T00:57:05;12.80;99.90
13744;DHT22;6943;52.368;9.966;2022-10-17T00:59:33;12.90;99.90
13744;DHT22;6943;52.368;9.966;2022-10-17T01:02:07;12.90;99.90
13744;DHT22;6943;52.368;9.966;2022-10-17T01:04:35;13.00;99.90
13744;DHT22;6943;52.368;9.966;2022-10-17T01:07:01;12.90;99.90
13744;DHT22;6943;52.368;9.966;2022-10-17T01:09:26;12.90;99.90
13744;DHT22;6943;52.368;9.966;2022-10-17T01:15:04;12.90;99.90
13744;DHT22;6943;52.368;9.966;2022-10-17T01:32:02;12.80;99.90
13744;DHT22;6943;52.368;9.966;2022-10-17T01:34:43;12.70;99.90
13744;DHT22;6943;52.368;9.966;2022-10-17T01:37:38;12.70;99.90
13744;DHT22;6943;52.368;9.966;2022-10-17T01:40:17;12.70;99.90
13744;DHT22;6943;52.368;9.966;2022-10-17T01:42:56;12.70;99.90
13744;DHT22;6943;52.368;9.966;2022-10-17T01:45:32;12.60;99.90
13744;DHT22;6943;52.368;9.966;2022-10-17T01:48:04;12.60;99.90
13744;DHT22;6943;52.368;9.966;2022-10-17T01:50:34;12.60;99.90
13744;DHT22;6943;52.368;9.966;2022-10-17T01:53:23;12.60;99.90
13744;DHT22;6943;52.368;9.966;2022-10-17T01:55:51;12.60;99.90
13744;DHT22;6943;52.368;9.966;2022-10-17T01:58:23;12.60;99.90
13744;DHT22;6943;52.368;9.966;2022-10-17T02:00:52;12.60;99.90
13744;DHT22;6943;52.368;9.966;2022-10-17T02:03:19;12.60;99.90
13744;DHT22;6943;52.368;9.966;2022-10-17T02:05:45;12.50;99.90
13744;DHT22;6943;52.368;9.966;2022-10-17T02:08:11;12.50;99.90
13744;DHT22;6943;52.368;9.966;2022-10-17T02:13:48;12.30;99.90
13744;DHT22;6943;52.368;9.966;2022-10-17T02:28:08;12.40;99.90
13744;DHT22;6943;52.368;9.966;2022-10-17T02:30:41;12.40;99.90
13744;DHT22;6943;52.368;9.966;2022-10-17T02:33:13;12.50;99.90
13744;DHT22;6943;52.368;9.966;2022-10-17T02:35:45;12.50;99.90
13744;DHT22;6943;52.368;9.966;2022-10-17T02:38:11;12.50;99.90
13744;DHT22;6943;52.368;9.966;2022-10-17T02:40:38;12.40;99.90
13744;DHT22;6943;52.368;9.966;2022-10-17T02:43:05;12.40;99.90
13744;DHT22;6943;52.368;9.966;2022-10-17T02:45:31;12.40;99.90
13744;DHT22;6943;52.368;9.966;2022-10-17T02:48:18;12.40;99.90
13744;DHT22;6943;52.368;9.966;2022-10-17T02:56:12;12.30;99.90
13744;DHT22;6943;52.368;9.966;2022-10-17T02:58:42;12.30;99.90
13744;DHT22;6943;52.368;9.966;2022-10-17T03:01:08;12.30;99.90
13744;DHT22;6943;52.368;9.966;2022-10-17T03:03:33;12.30;99.90
13744;DHT22;6943;52.368;9.966;2022-10-17T03:05:59;12.20;99.90
13744;DHT22;6943;52.368;9.966;2022-10-17T03:08:25;12.20;99.90
13744;DHT22;6943;52.368;9.966;2022-10-17T03:10:50;12.20;99.90
13744;DHT22;6943;52.368;9.966;2022-10-17T03:13:16;12.10;99.90
13744;DHT22;6943;52.368;9.966;2022-10-17T03:15:41;12.20;99.90
13744;DHT22;6943;52.368;9.966;2022-10-17T03:18:07;12.10;99.90
13744;DHT22;6943;52.368;9.966;2022-10-17T03:20:33;12.10;99.90
13744;DHT22;6943;52.368;9.966;2022-10-17T03:22:59;12.10;99.90
13744;DHT22;6943;52.368;9.966;2022-10-17T03:25:25;12.10;99.90
13744;DHT22;6943;52.368;9.966;2022-10-17T03:27:51;12.10;99.90
13744;DHT22;6943;52.368;9.966;2022-10-17T03:30:16;12.10;99.90
13744;DHT22;6943;52.368;9.966;2022-10-17T03:32:42;12.20;99.90
13744;DHT22;6943;52.368;9.966;2022-10-17T03:35:07;12.10;99.90
13744;DHT22;6943;52.368;9.966;2022-10-17T03:37:33;12.10;99.90
13744;DHT22;6943;52.368;9.966;2022-10-17T03:39:59;12.20;99.90
13744;DHT22;6943;52.368;9.966;2022-10-17T03:42:24;12.30;99.90
13744;DHT22;6943;52.368;9.966;2022-10-17T03:44:49;12.30;99.90
13744;DHT22;6943;52.368;9.966;2022-10-17T03:47:15;12.30;99.90
13744;DHT22;6943;52.368;9.966;2022-10-17T03:49:40;12.30;99.90
13744;DHT22;6943;52.368;9.966;2022-10-17T03:52:13;12.40;99.90
13744;DHT22;6943;52.368;9.966;2022-10-17T03:54:39;12.50;99.90
13744;DHT22;6943;52.368;9.966;2022-10-17T03:57:04;12.50;99.90
13744;DHT22;6943;52.368;9.966;2022-10-17T03:59:30;12.50;99.90
13744;DHT22;6943;52.368;9.966;2022-10-17T04:01:55;12.50;99.90
13744;DHT22;6943;52.368;9.966;2022-10-17T04:04:21;12.60;99.90
13744;DHT22;6943;52.368;9.966;2022-10-17T04:06:47;12.60;99.90
13744;DHT22;6943;52.368;9.966;2022-10-17T04:09:12;12.60;99.90
13744;DHT22;6943;52.368;9.966;2022-10-17T04:11:38;12.60;99.90
13744;DHT22;6943;52.368;9.966;2022-10-17T04:14:04;12.60;99.90
13744;DHT22;6943;52.368;9.966;2022-10-17T04:16:30;12.60;99.90
13744;DHT22;6943;52.368;9.966;2022-10-17T04:18:57;12.60;99.90
13744;DHT22;6943;52.368;9.966;2022-10-17T04:21:24;12.70;99.90
13744;DHT22;6943;52.368;9.966;2022-10-17T04:23:57;12.60;99.90
13744;DHT22;6943;52.368;9.966;2022-10-17T04:26:23;12.60;99.90
13744;DHT22;6943;52.368;9.966;2022-10-17T04:28:49;12.70;99.90
13744;DHT22;6943;52.368;9.966;2022-10-17T04:31:15;12.60;99.90
13744;DHT22;6943;52.368;9.966;2022-10-17T04:33:41;12.60;99.90
13744;DHT22;6943;52.368;9.966;2022-10-17T04:36:12;12.60;99.90
13744;DHT22;6943;52.368;9.966;2022-10-17T04:38:38;12.60;99.90
13744;DHT22;6943;52.368;9.966;2022-10-17T04:41:09;12.60;99.90
13744;DHT22;6943;52.368;9.966;2022-10-17T04:43:37;12.60;99.90
13744;DHT22;6943;52.368;9.966;2022-10-17T04:46:05;12.70;99.90
13744;DHT22;6943;52.368;9.966;2022-10-17T04:48:31;12.90;99.90
13744;DHT22;6943;52.368;9.966;2022-10-17T04:50:58;12.80;99.90
13744;DHT22;6943;52.368;9.966;2022-10-17T04:53:25;12.90;99.90
13744;DHT22;6943;52.368;9.966;2022-10-17T04:55:51;13.00;99.90
13744;DHT22;6943;52.368;9.966;2022-10-17T04:58:17;13.00;99.90
13744;DHT22;6943;52.368;9.966;2022-10-17T05:00:43;13.00;99.90
13744;DHT22;6943;52.368;9.966;2022-10-17T05:03:08;13.00;99.90
13744;DHT22;6943;52.368;9.966;2022-10-17T05:05:39;13.00;99.90
13744;DHT22;6943;52.368;9.966;2022-10-17T05:08:06;13.00;99.90
13744;DHT22;6943;52.368;9.966;2022-10-17T05:10:41;13.00;99.90
13744;DHT22;6943;52.368;9.966;2022-10-17T05:13:07;13.00;99.90
13744;DHT22;6943;52.368;9.966;2022-10-17T05:15:33;12.90;99.90
13744;DHT22;6943;52.368;9.966;2022-10-17T05:17:59;12.90;99.90
13744;DHT22;6943;52.368;9.966;2022-10-17T05:20:25;13.00;99.90
13744;DHT22;6943;52.368;9.966;2022-10-17T05:22:51;12.90;99.90
13744;DHT22;6943;52.368;9.966;2022-10-17T05:25:16;12.90;99.90
13744;DHT22;6943;52.368;9.966;2022-10-17T05:27:42;13.00;99.90
13744;DHT22;6943;52.368;9.966;2022-10-17T05:30:08;13.00;99.90
13744;DHT22;6943;52.368;9.966;2022-10-17T05:32:34;13.00;99.90
13744;DHT22;6943;52.368;9.966;2022-10-17T05:35:00;13.10;99.90
13744;DHT22;6943;52.368;9.966;2022-10-17T05:37:28;13.00;99.90
13744;DHT22;6943;52.368;9.966;2022-10-17T05:39:53;13.00;99.90
13744;DHT22;6943;52.368;9.966;2022-10-17T05:42:19;13.00;99.90
13744;DHT22;6943;52.368;9.966;2022-10-17T05:44:45;13.00;99.90
13744;DHT22;6943;52.368;9.966;2022-10-17T05:47:10;13.00;99.90
13744;DHT22;6943;52.368;9.966;2022-10-17T05:49:36;13.00;99.90
13744;DHT22;6943;52.368;9.966;2022-10-17T05:52:01;13.00;99.90
13744;DHT22;6943;52.368;9.966;2022-10-17T05:54:27;13.00;99.90
13744;DHT22;6943;52.368;9.966;2022-10-17T05:56:53;13.10;99.90
13744;DHT22;6943;52.368;9.966;2022-10-17T05:59:19;13.10;99.90
13744;DHT22;6943;52.368;9.966;2022-10-17T06:01:45;13.10;99.90
13744;DHT22;6943;52.368;9.966;2022-10-17T06:04:11;13.20;99.90
13744;DHT22;6943;52.368;9.966;2022-10-17T06:06:37;13.30;99.90
13744;DHT22;6943;52.368;9.966;2022-10-17T06:09:03;13.40;99.90
13744;DHT22;6943;52.368;9.966;2022-10-17T06:11:29;13.40;99.90
13744;DHT22;6943;52.368;9.966;2022-10-17T06:13:55;13.50;99.90
13744;DHT22;6943;52.368;9.966;2022-10-17T06:16:21;13.60;99.90
13744;DHT22;6943;52.368;9.966;2022-10-17T06:18:46;13.60;99.90
13744;DHT22;6943;52.368;9.966;2022-10-17T06:21:14;13.70;99.90
13744;DHT22;6943;52.368;9.966;2022-10-17T06:23:41;13.70;99.90
13744;DHT22;6943;52.368;9.966;2022-10-17T06:26:07;13.80;99.90
13744;DHT22;6943;52.368;9.966;2022-10-17T06:28:33;13.90;99.90
13744;DHT22;6943;52.368;9.966;2022-10-17T06:31:04;13.90;99.90
13744;DHT22;6943;52.368;9.966;2022-10-17T06:33:30;14.10;99.90
13744;DHT22;6943;52.368;9.966;2022-10-17T06:35:55;14.20;99.90
13744;DHT22;6943;52.368;9.966;2022-10-17T06:38:22;14.30;99.90
13744;DHT22;6943;52.368;9.966;2022-10-17T06:40:47;14.40;99.90
13744;DHT22;6943;52.368;9.966;2022-10-17T06:43:13;14.40;99.90
13744;DHT22;6943;52.368;9.966;2022-10-17T06:45:39;14.60;99.90
13744;DHT22;6943;52.368;9.966;2022-10-17T06:48:05;14.70;99.90
13744;DHT22;6943;52.368;9.966;2022-10-17T06:50:31;14.70;99.90
13744;DHT22;6943;52.368;9.966;2022-10-17T06:52:57;15.40;99.90
13744;DHT22;6943;52.368;9.966;2022-10-17T06:55:22;15.10;99.90
13744;DHT22;6943;52.368;9.966;2022-10-17T06:57:48;15.30;99.90
13744;DHT22;6943;52.368;9.966;2022-10-17T07:00:13;15.40;99.90
13744;DHT22;6943;52.368;9.966;2022-10-17T07:02:41;15.70;99.90
13744;DHT22;6943;52.368;9.966;2022-10-17T07:05:06;15.80;99.90
13744;DHT22;6943;52.368;9.966;2022-10-17T07:07:32;16.00;99.90
13744;DHT22;6943;52.368;9.966;2022-10-17T07:09:58;16.20;99.90
13744;DHT22;6943;52.368;9.966;2022-10-17T07:12:23;16.30;99.90
13744;DHT22;6943;52.368;9.966;2022-10-17T07:14:49;16.30;99.90
13744;DHT22;6943;52.368;9.966;2022-10-17T07:17:16;16.40;99.90
13744;DHT22;6943;52.368;9.966;2022-10-17T07:19:42;16.50;99.90
13744;DHT22;6943;52.368;9.966;2022-10-17T07:22:09;16.50;99.90
13744;DHT22;6943;52.368;9.966;2022-10-17T07:24:35;16.70;99.90
13744;DHT22;6943;52.368;9.966;2022-10-17T07:27:00;16.80;99.90
13744;DHT22;6943;52.368;9.966;2022-10-17T07:29:27;17.10;99.90
13744;DHT22;6943;52.368;9.966;2022-10-17T07:31:52;17.70;99.90
13744;DHT22;6943;52.368;9.966;2022-10-17T07:34:18;18.40;99.90
13744;DHT22;6943;52.368;9.966;2022-10-17T07:36:44;19.40;99.90
13744;DHT22;6943;52.368;9.966;2022-10-17T07:39:09;20.40;99.90
13744;DHT22;6943;52.368;9.966;2022-10-17T07:41:35;21.40;1.00
13744;DHT22;6943;52.368;9.966;2022-10-17T07:44:01;21.90;1.00
13744;DHT22;6943;52.368;9.966;2022-10-17T07:46:26;22.30;1.00
13744;DHT22;6943;52.368;9.966;2022-10-17T07:48:52;22.80;99.90
13744;DHT22;6943;52.368;9.966;2022-10-17T07:51:17;23.00;99.90
13744;DHT22;6943;52.368;9.966;2022-10-17T07:53:44;23.20;99.90
13744;DHT22;6943;52.368;9.966;2022-10-17T07:56:10;23.40;99.90
13744;DHT22;6943;52.368;9.966;2022-10-17T07:58:36;23.70;99.90
13744;DHT22;6943;52.368;9.966;2022-10-17T08:01:04;23.50;99.90
13744;DHT22;6943;52.368;9.966;2022-10-17T08:03:29;23.20;99.90
13744;DHT22;6943;52.368;9.966;2022-10-17T08:05:59;22.60;99.90
13744;DHT22;6943;52.368;9.966;2022-10-17T08:08:25;22.00;99.90
13744;DHT22;6943;52.368;9.966;2022-10-17T08:10:52;21.70;1.00
13744;DHT22;6943;52.368;9.966;2022-10-17T08:13:20;21.60;1.00
13744;DHT22;6943;52.368;9.966;2022-10-17T08:15:46;21.30;1.00
13744;DHT22;6943;52.368;9.966;2022-10-17T08:18:13;21.30;1.00
13744;DHT22;6943;52.368;9.966;2022-10-17T08:20:39;21.30;1.00
13744;DHT22;6943;52.368;9.966;2022-10-17T08:23:05;21.50;1.00
13744;DHT22;6943;52.368;9.966;2022-10-17T08:25:30;22.10;1.00
13744;DHT22;6943;52.368;9.966;2022-10-17T08:27:57;22.80;99.90
13744;DHT22;6943;52.368;9.966;2022-10-17T08:30:22;22.90;99.90
13744;DHT22;6943;52.368;9.966;2022-10-17T08:32:48;23.00;99.90
13744;DHT22;6943;52.368;9.966;2022-10-17T08:35:13;23.20;99.90
13744;DHT22;6943;52.368;9.966;2022-10-17T08:37:39;23.70;99.90
13744;DHT22;6943;52.368;9.966;2022-10-17T08:40:05;24.00;99.90
13744;DHT22;6943;52.368;9.966;2022-10-17T08:42:57;24.00;99.90
13744;DHT22;6943;52.368;9.966;2022-10-17T08:47:57;24.10;99.90
13744;DHT22;6943;52.368;9.966;2022-10-17T08:50:28;24.10;99.90
13744;DHT22;6943;52.368;9.966;2022-10-17T08:53:05;24.10;99.90
13744;DHT22;6943;52.368;9.966;2022-10-17T08:55:39;23.90;99.90
13744;DHT22;6943;52.368;9.966;2022-10-17T08:58:43;23.60;99.90
13744;DHT22;6943;52.368;9.966;2022-10-17T09:01:43;23.10;99.90
13744;DHT22;6943;52.368;9.966;2022-10-17T09:07:26;22.60;99.90
13744;DHT22;6943;52.368;9.966;2022-10-17T09:10:10;22.50;99.90
13744;DHT22;6943;52.368;9.966;2022-10-17T09:15:46;21.90;1.00
13744;DHT22;6943;52.368;9.966;2022-10-17T09:18:20;21.90;1.00
13744;DHT22;6943;52.368;9.966;2022-10-17T09:23:34;21.80;1.00
13744;DHT22;6943;52.368;9.966;2022-10-17T09:26:03;21.60;1.00
13744;DHT22;6943;52.368;9.966;2022-10-17T09:28:35;21.40;1.00
13744;DHT22;6943;52.368;9.966;2022-10-17T09:33:44;21.50;1.00
13744;DHT22;6943;52.368;9.966;2022-10-17T09:36:37;21.50;1.00
13744;DHT22;6943;52.368;9.966;2022-10-17T09:39:09;21.60;1.00
13744;DHT22;6943;52.368;9.966;2022-10-17T09:41:43;21.50;1.00
13744;DHT22;6943;52.368;9.966;2022-10-17T09:49:50;21.60;1.00
13744;DHT22;6943;52.368;9.966;2022-10-17T09:52:32;21.60;1.00
13744;DHT22;6943;52.368;9.966;2022-10-17T09:55:15;21.70;1.00
13744;DHT22;6943;52.368;9.966;2022-10-17T09:58:08;21.80;1.00
13744;DHT22;6943;52.368;9.966;2022-10-17T10:03:22;21.90;1.00
13744;DHT22;6943;52.368;9.966;2022-10-17T10:06:04;21.90;1.00
13744;DHT22;6943;52.368;9.966;2022-10-17T10:08:35;21.90;1.00
13744;DHT22;6943;52.368;9.966;2022-10-17T10:11:06;21.90;1.00
13744;DHT22;6943;52.368;9.966;2022-10-17T10:13:33;21.80;1.00
13744;DHT22;6943;52.368;9.966;2022-10-17T10:17:02;21.70;1.00
13744;DHT22;6943;52.368;9.966;2022-10-17T10:19:28;21.70;1.00
13744;DHT22;6943;52.368;9.966;2022-10-17T10:21:57;21.70;1.00
13744;DHT22;6943;52.368;9.966;2022-10-17T10:24:23;21.70;1.00
13744;DHT22;6943;52.368;9.966;2022-10-17T10:26:50;21.90;1.00
13744;DHT22;6943;52.368;9.966;2022-10-17T10:31:44;22.10;1.00
13744;DHT22;6943;52.368;9.966;2022-10-17T10:34:15;22.30;1.00
13744;DHT22;6943;52.368;9.966;2022-10-17T10:36:47;22.40;1.00
13744;DHT22;6943;52.368;9.966;2022-10-17T10:39:47;22.60;99.90
13744;DHT22;6943;52.368;9.966;2022-10-17T10:42:40;22.80;99.90
13744;DHT22;6943;52.368;9.966;2022-10-17T10:45:24;23.00;99.90
13744;DHT22;6943;52.368;9.966;2022-10-17T10:48:00;23.00;99.90
13744;DHT22;6943;52.368;9.966;2022-10-17T10:50:38;23.00;99.90
13744;DHT22;6943;52.368;9.966;2022-10-17T10:56:00;22.80;99.90
13744;DHT22;6943;52.368;9.966;2022-10-17T11:01:30;22.80;99.90
13744;DHT22;6943;52.368;9.966;2022-10-17T11:07:05;22.90;99.90
13744;DHT22;6943;52.368;9.966;2022-10-17T11:09:33;23.00;99.90
13744;DHT22;6943;52.368;9.966;2022-10-17T11:12:10;23.10;99.90
13744;DHT22;6943;52.368;9.966;2022-10-17T11:18:04;23.20;99.90
13744;DHT22;6943;52.368;9.966;2022-10-17T11:20:49;23.30;99.90
13744;DHT22;6943;52.368;9.966;2022-10-17T11:23:22;23.20;99.90
13744;DHT22;6943;52.368;9.966;2022-10-17T11:25:50;23.30;99.90
13744;DHT22;6943;52.368;9.966;2022-10-17T11:28:19;23.30;99.90
13744;DHT22;6943;52.368;9.966;2022-10-17T11:30:47;23.30;99.90
13744;DHT22;6943;52.368;9.966;2022-10-17T11:33:27;23.20;99.90
13744;DHT22;6943;52.368;9.966;2022-10-17T11:35:58;23.00;99.90
13744;DHT22;6943;52.368;9.966;2022-10-17T11:38:38;23.00;99.90
13744;DHT22;6943;52.368;9.966;2022-10-17T11:41:05;23.10;99.90
13744;DHT22;6943;52.368;9.966;2022-10-17T11:43:53;23.30;99.90
13744;DHT22;6943;52.368;9.966;2022-10-17T11:46:22;23.30;99.90
13744;DHT22;6943;52.368;9.966;2022-10-17T11:51:26;23.30;99.90
13744;DHT22;6943;52.368;9.966;2022-10-17T11:54:09;23.30;99.90
13744;DHT22;6943;52.368;9.966;2022-10-17T11:56:57;23.20;99.90
13744;DHT22;6943;52.368;9.966;2022-10-17T12:02:26;23.20;99.90
13744;DHT22;6943;52.368;9.966;2022-10-17T12:05:02;23.20;99.90
13744;DHT22;6943;52.368;9.966;2022-10-17T12:07:40;23.30;99.90
13744;DHT22;6943;52.368;9.966;2022-10-17T12:10:24;23.30;99.90
13744;DHT22;6943;52.368;9.966;2022-10-17T12:12:52;23.40;99.90
13744;DHT22;6943;52.368;9.966;2022-10-17T12:17:44;23.50;99.90
13744;DHT22;6943;52.368;9.966;2022-10-17T12:25:28;23.60;99.90
13744;DHT22;6943;52.368;9.966;2022-10-17T12:28:18;23.50;99.90
13744;DHT22;6943;52.368;9.966;2022-10-17T12:31:06;23.50;99.90
13744;DHT22;6943;52.368;9.966;2022-10-17T12:33:47;23.50;99.90
13744;DHT22;6943;52.368;9.966;2022-10-17T12:38:42;23.30;99.90
13744;DHT22;6943;52.368;9.966;2022-10-17T12:41:08;23.10;99.90
13744;DHT22;6943;52.368;9.966;2022-10-17T12:43:54;23.00;99.90
13744;DHT22;6943;52.368;9.966;2022-10-17T12:46:54;22.90;99.90
13744;DHT22;6943;52.368;9.966;2022-10-17T12:52:14;22.80;99.90
13744;DHT22;6943;52.368;9.966;2022-10-17T12:54:43;22.80;99.90
13744;DHT22;6943;52.368;9.966;2022-10-17T13:00:26;22.80;99.90
13744;DHT22;6943;52.368;9.966;2022-10-17T13:02:54;22.80;99.90
13744;DHT22;6943;52.368;9.966;2022-10-17T13:05:26;22.90;99.90
13744;DHT22;6943;52.368;9.966;2022-10-17T13:07:54;23.00;99.90
13744;DHT22;6943;52.368;9.966;2022-10-17T13:10:25;23.00;99.90
13744;DHT22;6943;52.368;9.966;2022-10-17T13:12:57;23.00;99.90
13744;DHT22;6943;52.368;9.966;2022-10-17T13:15:25;23.00;99.90
13744;DHT22;6943;52.368;9.966;2022-10-17T13:18:00;22.90;99.90
13744;DHT22;6943;52.368;9.966;2022-10-17T13:20:27;22.80;99.90
13744;DHT22;6943;52.368;9.966;2022-10-17T13:22:54;22.80;99.90
13744;DHT22;6943;52.368;9.966;2022-10-17T13:25:21;22.60;99.90
13744;DHT22;6943;52.368;9.966;2022-10-17T13:27:48;22.60;99.90
13744;DHT22;6943;52.368;9.966;2022-10-17T13:32:51;22.40;99.90
13744;DHT22;6943;52.368;9.966;2022-10-17T13:35:29;22.40;99.90
13744;DHT22;6943;52.368;9.966;2022-10-17T13:37:56;22.30;99.90
13744;DHT22;6943;52.368;9.966;2022-10-17T13:40:26;22.30;99.90
13744;DHT22;6943;52.368;9.966;2022-10-17T13:42:53;22.20;99.90
13744;DHT22;6943;52.368;9.966;2022-10-17T13:45:33;22.30;99.90
13744;DHT22;6943;52.368;9.966;2022-10-17T13:48:07;22.20;99.90
13744;DHT22;6943;52.368;9.966;2022-10-17T13:50:41;22.30;99.90
13744;DHT22;6943;52.368;9.966;2022-10-17T13:53:31;22.30;99.90
13744;DHT22;6943;52.368;9.966;2022-10-17T13:55:58;22.30;99.90
13744;DHT22;6943;52.368;9.966;2022-10-17T13:58:24;22.30;99.90
13744;DHT22;6943;52.368;9.966;2022-10-17T14:00:50;22.20;99.90
13744;DHT22;6943;52.368;9.966;2022-10-17T14:03:20;22.20;99.90
13744;DHT22;6943;52.368;9.966;2022-10-17T14:06:06;22.10;1.00
13744;DHT22;6943;52.368;9.966;2022-10-17T14:08:37;22.00;1.00
13744;DHT22;6943;52.368;9.966;2022-10-17T14:11:13;21.90;1.00
13744;DHT22;6943;52.368;9.966;2022-10-17T14:13:39;21.80;1.00
13744;DHT22;6943;52.368;9.966;2022-10-17T14:16:05;21.80;1.00
13744;DHT22;6943;52.368;9.966;2022-10-17T14:18:35;21.80;1.00
13744;DHT22;6943;52.368;9.966;2022-10-17T14:21:01;21.70;1.00
13744;DHT22;6943;52.368;9.966;2022-10-17T14:23:36;21.70;1.00
13744;DHT22;6943;52.368;9.966;2022-10-17T14:28:30;21.50;1.00
13744;DHT22;6943;52.368;9.966;2022-10-17T14:31:09;21.50;1.00
13744;DHT22;6943;52.368;9.966;2022-10-17T14:33:35;21.50;1.00
13744;DHT22;6943;52.368;9.966;2022-10-17T14:36:01;21.50;1.00
13744;DHT22;6943;52.368;9.966;2022-10-17T14:38:28;21.40;1.00
13744;DHT22;6943;52.368;9.966;2022-10-17T14:41:22;21.40;1.00
13744;DHT22;6943;52.368;9.966;2022-10-17T14:44:00;21.40;1.00
13744;DHT22;6943;52.368;9.966;2022-10-17T14:46:27;21.50;1.00
13744;DHT22;6943;52.368;9.966;2022-10-17T14:48:56;21.40;1.00
13744;DHT22;6943;52.368;9.966;2022-10-17T14:51:22;21.40;1.00
13744;DHT22;6943;52.368;9.966;2022-10-17T14:56:51;21.30;1.00
13744;DHT22;6943;52.368;9.966;2022-10-17T14:59:17;21.30;1.00
13744;DHT22;6943;52.368;9.966;2022-10-17T15:01:47;21.30;1.00
13744;DHT22;6943;52.368;9.966;2022-10-17T15:04:13;21.30;1.00
13744;DHT22;6943;52.368;9.966;2022-10-17T15:06:39;21.30;1.00
13744;DHT22;6943;52.368;9.966;2022-10-17T15:09:05;21.20;1.00
13744;DHT22;6943;52.368;9.966;2022-10-17T15:11:31;21.10;1.00
13744;DHT22;6943;52.368;9.966;2022-10-17T15:13:56;21.40;1.00
13744;DHT22;6943;52.368;9.966;2022-10-17T15:16:24;21.10;1.00
13744;DHT22;6943;52.368;9.966;2022-10-17T15:18:51;21.00;1.00
13744;DHT22;6943;52.368;9.966;2022-10-17T15:21:19;21.00;1.00
13744;DHT22;6943;52.368;9.966;2022-10-17T15:23:45;20.90;1.00
13744;DHT22;6943;52.368;9.966;2022-10-17T15:26:19;20.90;1.00
13744;DHT22;6943;52.368;9.966;2022-10-17T15:28:45;20.90;1.00
13744;DHT22;6943;52.368;9.966;2022-10-17T15:31:13;20.80;1.00
13744;DHT22;6943;52.368;9.966;2022-10-17T15:33:40;20.70;1.00
13744;DHT22;6943;52.368;9.966;2022-10-17T15:36:19;20.70;1.00
13744;DHT22;6943;52.368;9.966;2022-10-17T15:38:46;20.60;41.30
13744;DHT22;6943;52.368;9.966;2022-10-17T15:41:11;20.60;65.40
13744;DHT22;6943;52.368;9.966;2022-10-17T15:43:37;20.50;99.90
13744;DHT22;6943;52.368;9.966;2022-10-17T15:46:03;20.50;99.90
13744;DHT22;6943;52.368;9.966;2022-10-17T15:48:30;20.40;99.90
13744;DHT22;6943;52.368;9.966;2022-10-17T15:50:56;20.40;99.90
13744;DHT22;6943;52.368;9.966;2022-10-17T15:53:22;20.40;99.90
13744;DHT22;6943;52.368;9.966;2022-10-17T15:55:48;20.30;99.90
13744;DHT22;6943;52.368;9.966;2022-10-17T15:58:16;20.30;99.90
13744;DHT22;6943;52.368;9.966;2022-10-17T16:00:43;20.20;99.90
13744;DHT22;6943;52.368;9.966;2022-10-17T16:03:09;20.20;99.90
13744;DHT22;6943;52.368;9.966;2022-10-17T16:05:34;20.10;99.90
13744;DHT22;6943;52.368;9.966;2022-10-17T16:08:00;20.10;99.90
13744;DHT22;6943;52.368;9.966;2022-10-17T16:10:26;20.10;1.00
13744;DHT22;6943;52.368;9.966;2022-10-17T16:12:51;20.00;1.00
13744;DHT22;6943;52.368;9.966;2022-10-17T16:15:23;20.00;1.00
13744;DHT22;6943;52.368;9.966;2022-10-17T16:17:53;19.90;1.00
13744;DHT22;6943;52.368;9.966;2022-10-17T16:20:20;19.90;1.00
13744;DHT22;6943;52.368;9.966;2022-10-17T16:22:47;19.90;1.00
13744;DHT22;6943;52.368;9.966;2022-10-17T16:25:21;19.90;1.00
13744;DHT22;6943;52.368;9.966;2022-10-17T16:27:49;19.90;1.00
13744;DHT22;6943;52.368;9.966;2022-10-17T16:30:15;19.80;1.00
13744;DHT22;6943;52.368;9.966;2022-10-17T16:32:41;19.80;1.00
13744;DHT22;6943;52.368;9.966;2022-10-17T16:35:07;19.70;1.00
13744;DHT22;6943;52.368;9.966;2022-10-17T16:37:32;19.70;1.00
13744;DHT22;6943;52.368;9.966;2022-10-17T16:40:00;19.60;1.00
13744;DHT22;6943;52.368;9.966;2022-10-17T16:42:25;19.60;1.00
13744;DHT22;6943;52.368;9.966;2022-10-17T16:44:51;19.60;1.00
13744;DHT22;6943;52.368;9.966;2022-10-17T16:47:17;19.60;1.00
13744;DHT22;6943;52.368;9.966;2022-10-17T16:49:43;19.50;1.00
13744;DHT22;6943;52.368;9.966;2022-10-17T16:52:09;19.50;1.00
13744;DHT22;6943;52.368;9.966;2022-10-17T16:54:35;19.50;1.00
13744;DHT22;6943;52.368;9.966;2022-10-17T16:57:01;19.40;1.00
13744;DHT22;6943;52.368;9.966;2022-10-17T16:59:27;19.40;32.20
13744;DHT22;6943;52.368;9.966;2022-10-17T17:01:53;19.30;57.70
13744;DHT22;6943;52.368;9.966;2022-10-17T17:04:18;19.30;46.00
13744;DHT22;6943;52.368;9.966;2022-10-17T17:06:44;19.30;27.10
13744;DHT22;6943;52.368;9.966;2022-10-17T17:09:10;19.30;1.00
13744;DHT22;6943;52.368;9.966;2022-10-17T17:11:36;19.40;1.00
13744;DHT22;6943;52.368;9.966;2022-10-17T17:14:03;19.40;1.00
13744;DHT22;6943;52.368;9.966;2022-10-17T17:16:31;19.40;1.00
13744;DHT22;6943;52.368;9.966;2022-10-17T17:19:02;19.40;1.00
13744;DHT22;6943;52.368;9.966;2022-10-17T17:21:29;19.40;1.00
13744;DHT22;6943;52.368;9.966;2022-10-17T17:23:58;19.40;1.00
13744;DHT22;6943;52.368;9.966;2022-10-17T17:26:25;19.40;1.00
13744;DHT22;6943;52.368;9.966;2022-10-17T17:28:51;19.40;1.00
13744;DHT22;6943;52.368;9.966;2022-10-17T17:31:20;19.30;1.00
13744;DHT22;6943;52.368;9.966;2022-10-17T17:33:47;19.20;1.00
13744;DHT22;6943;52.368;9.966;2022-10-17T17:36:14;19.30;1.00
13744;DHT22;6943;52.368;9.966;2022-10-17T17:38:42;19.30;1.00
13744;DHT22;6943;52.368;9.966;2022-10-17T17:41:11;19.20;1.00
13744;DHT22;6943;52.368;9.966;2022-10-17T17:43:38;19.20;33.30
13744;DHT22;6943;52.368;9.966;2022-10-17T17:46:03;19.10;96.40
13744;DHT22;6943;52.368;9.966;2022-10-17T17:48:29;19.10;99.90
13744;DHT22;6943;52.368;9.966;2022-10-17T17:50:55;19.00;99.90